Time;durP1;ratioP1;P1;durP2;ratioP2;P2;SDS_P1;SDS_P2;PMS_P1;PMS_P2;Temp;Humidity;BMP_temperature;BMP_pressure;BME280_temperature;BME280_humidity;BME280_pressure;Samples;Min_cycle;Max_cycle;Signal;HPM_P1;HPM_P2
2021/04/24 00:02:24;;;;;;;4.70;2.35;;;;;;;6.94;100.00;100945.63;1750211;82;21207;-86
2021/04/24 00:04:50;;;;;;;6.70;2.77;;;;;;;6.90;100.00;100948.98;1737216;82;20902;-86
2021/04/24 00:07:18;;;;;;;6.90;2.80;;;;;;;6.96;100.00;100941.37;1724627;82;20960;-86
2021/04/24 00:09:44;;;;;;;5.90;2.77;;;;;;;6.89;100.00;100937.45;1737125;82;21187;-86
2021/04/24 00:12:10;;;;;;;7.47;3.05;;;;;;;6.86;100.00;100935.22;1750222;82;21131;-86
2021/04/24 00:14:36;;;;;;;4.53;2.58;;;;;;;6.69;100.00;100938.23;1737176;82;21144;-86
2021/04/24 00:17:03;;;;;;;4.72;2.50;;;;;;;6.68;100.00;100941.96;1750219;82;20913;-86
2021/04/24 00:19:30;;;;;;;7.03;2.90;;;;;;;6.71;100.00;100929.45;1737282;82;21213;-86
2021/04/24 00:21:55;;;;;;;6.35;2.70;;;;;;;6.66;100.00;100928.78;1750187;82;21151;-86
2021/04/24 00:24:21;;;;;;;7.70;2.80;;;;;;;6.65;100.00;100928.99;1737063;82;21048;-86
2021/04/24 00:26:47;;;;;;;4.95;2.67;;;;;;;6.61;100.00;100929.97;1748430;82;21236;-85
2021/04/24 00:29:13;;;;;;;6.15;2.30;;;;;;;6.56;100.00;100927.17;1722471;83;21623;-86
2021/04/24 00:31:39;;;;;;;7.72;3.10;;;;;;;6.54;100.00;100939.95;1736105;82;21061;-86
2021/04/24 00:34:05;;;;;;;9.88;3.22;;;;;;;6.61;100.00;100935.33;1752542;81;21002;-85
2021/04/24 00:36:32;;;;;;;7.78;2.70;;;;;;;6.56;100.00;100941.38;1752614;81;21065;-85
2021/04/24 00:38:58;;;;;;;6.00;2.98;;;;;;;6.54;100.00;100939.95;1747799;81;21802;-86
2021/04/24 00:41:25;;;;;;;8.85;3.25;;;;;;;6.50;100.00;100934.23;1752444;81;21030;-85
2021/04/24 00:43:51;;;;;;;6.00;2.80;;;;;;;6.52;100.00;100935.34;1752431;81;21156;-86
2021/04/24 00:46:18;;;;;;;8.33;2.90;;;;;;;6.46;100.00;100938.91;1747709;81;21141;-85
2021/04/24 00:48:44;;;;;;;7.55;3.45;;;;;;;6.41;100.00;100938.76;1752568;81;21110;-86
2021/04/24 00:51:10;;;;;;;6.53;2.85;;;;;;;6.30;100.00;100948.37;1752510;81;21938;-86
2021/04/24 00:53:37;;;;;;;16.12;2.85;;;;;;;6.30;100.00;100947.84;1752373;81;21128;-86
2021/04/24 00:56:05;;;;;;;5.42;2.77;;;;;;;6.27;100.00;100949.63;1752485;81;21137;-86
2021/04/24 00:58:33;;;;;;;10.75;3.70;;;;;;;6.25;100.00;100945.01;1752515;81;21168;-85
2021/04/24 01:01:02;;;;;;;6.80;3.27;;;;;;;6.17;100.00;100953.32;1752538;81;21565;-85
2021/04/24 01:03:28;;;;;;;6.92;3.02;;;;;;;6.13;100.00;100956.16;1752411;81;21237;-85
2021/04/24 01:05:54;;;;;;;10.43;3.27;;;;;;;5.98;100.00;100953.02;1752347;81;21486;-85
2021/04/24 01:08:20;;;;;;;8.63;3.60;;;;;;;6.01;100.00;100956.59;1752575;81;21156;-85
2021/04/24 01:10:46;;;;;;;12.80;3.70;;;;;;;6.01;100.00;100964.61;1752455;81;21005;-85
2021/04/24 01:13:16;;;;;;;10.30;3.45;;;;;;;5.99;100.00;100964.81;1752567;81;21094;-86
2021/04/24 01:15:44;;;;;;;9.60;4.28;;;;;;;5.99;100.00;100962.14;1752520;81;21253;-86
2021/04/24 01:18:11;;;;;;;10.98;3.55;;;;;;;5.98;100.00;100961.05;1752456;81;21645;-87
2021/04/24 01:20:39;;;;;;;5.95;3.05;;;;;;;5.96;100.00;100965.26;1752271;81;21081;-85
2021/04/24 01:23:07;;;;;;;6.65;2.90;;;;;;;5.94;100.00;100959.30;1752343;81;21224;-85
2021/04/24 01:25:38;;;;;;;7.42;3.27;;;;;;;5.93;100.00;100964.36;1752366;81;21144;-85
2021/04/24 01:28:05;;;;;;;7.85;3.65;;;;;;;6.00;100.00;100960.28;1757789;81;21132;-85
2021/04/24 01:30:38;;;;;;;5.35;3.00;;;;;;;6.08;100.00;100958.14;1760611;81;21707;-86
2021/04/24 01:33:09;;;;;;;7.58;3.27;;;;;;;6.10;100.00;100961.95;1689845;84;21128;-85
2021/04/24 01:35:38;;;;;;;7.12;3.30;;;;;;;6.21;100.00;100967.91;1689867;84;21183;-85
2021/04/24 01:38:04;;;;;;;6.92;3.33;;;;;;;6.18;100.00;100967.02;1689775;84;21172;-85
2021/04/24 01:40:31;;;;;;;7.40;3.60;;;;;;;6.24;100.00;100974.16;1689767;84;21600;-86
2021/04/24 01:42:57;;;;;;;8.08;3.47;;;;;;;6.28;100.00;100971.33;1689634;84;21215;-86
2021/04/24 01:45:25;;;;;;;8.95;3.22;;;;;;;6.34;100.00;100977.13;1689703;84;21164;-85
2021/04/24 01:47:52;;;;;;;8.73;4.10;;;;;;;6.33;100.00;100982.72;1689797;84;21216;-86
2021/04/24 01:50:31;;;;;;;7.10;3.60;;;;;;;6.31;100.00;100983.45;1689768;84;21127;-86
2021/04/24 01:53:00;;;;;;;8.53;3.60;;;;;;;6.32;100.00;100976.55;1689806;84;21258;-86
2021/04/24 01:55:30;;;;;;;7.28;3.50;;;;;;;6.40;100.00;100981.30;1689644;84;21606;-85
2021/04/24 01:57:59;;;;;;;6.85;3.25;;;;;;;6.32;100.00;100980.56;1689698;84;21156;-85
2021/04/24 02:00:32;;;;;;;7.40;3.90;;;;;;;6.35;100.00;100979.28;1689729;84;21223;-86
2021/04/24 02:03:03;;;;;;;8.43;3.72;;;;;;;6.34;100.00;100989.70;1689788;84;21196;-86
2021/04/24 02:05:29;;;;;;;8.45;4.05;;;;;;;6.27;100.00;100984.95;1689683;84;21203;-86
2021/04/24 02:08:09;;;;;;;13.60;3.70;;;;;;;6.24;100.00;100984.05;1689772;84;21061;-86
2021/04/24 02:10:37;;;;;;;5.53;3.30;;;;;;;6.23;100.00;100989.08;1689608;84;21207;-86
2021/04/24 02:13:16;;;;;;;7.37;3.30;;;;;;;6.10;100.00;100988.17;1689776;84;21207;-86
2021/04/24 02:15:42;;;;;;;8.18;3.15;;;;;;;5.99;100.00;100996.92;1689621;84;21324;-86
2021/04/24 02:18:09;;;;;;;7.20;3.37;;;;;;;5.97;100.00;101003.52;1689656;84;21109;-86
2021/04/24 02:20:39;;;;;;;9.75;3.67;;;;;;;5.94;100.00;101002.09;1689655;84;21714;-85
2021/04/24 02:23:07;;;;;;;14.07;3.80;;;;;;;5.81;100.00;101000.85;1689685;84;21584;-86
2021/04/24 02:25:34;;;;;;;8.55;3.70;;;;;;;5.73;100.00;101004.61;1689703;84;21271;-86
2021/04/24 02:28:00;;;;;;;10.55;3.72;;;;;;;5.66;100.00;101004.66;1661687;84;21657;-86
2021/04/24 02:30:26;;;;;;;5.72;3.20;;;;;;;5.64;100.00;101008.06;1684135;84;21179;-86
2021/04/24 02:32:52;;;;;;;9.98;3.30;;;;;;;5.59;100.00;101012.41;1714276;83;21236;-86
2021/04/24 02:35:26;;;;;;;10.10;3.60;;;;;;;5.58;100.00;101011.61;1701590;84;21053;-86
2021/04/24 02:37:52;;;;;;;8.80;4.05;;;;;;;5.58;100.00;101012.12;1628386;87;21188;-86
2021/04/24 02:40:21;;;;;;;12.55;3.65;;;;;;;5.55;100.00;101020.58;1602534;88;20946;-87
2021/04/24 02:42:47;;;;;;;8.35;3.72;;;;;;;5.59;100.00;101021.28;1628506;88;21344;-86
2021/04/24 02:45:15;;;;;;;10.75;3.60;;;;;;;5.60;100.00;101019.42;1628247;88;21164;-87
2021/04/24 02:47:42;;;;;;;14.20;4.30;;;;;;;5.65;100.00;101020.94;1628500;88;21118;-86
2021/04/24 02:50:13;;;;;;;10.85;3.62;;;;;;;5.77;100.00;101025.07;1628148;88;21295;-86
2021/04/24 02:52:39;;;;;;;7.97;3.85;;;;;;;5.82;100.00;101027.89;1628271;86;21205;-86
2021/04/24 02:55:08;;;;;;;10.60;3.72;;;;;;;5.96;100.00;101029.45;1628366;88;21381;-86
2021/04/24 02:57:34;;;;;;;11.45;4.50;;;;;;;6.01;100.00;101028.81;1628413;88;21764;-86
2021/04/24 02:59:59;;;;;;;9.80;4.22;;;;;;;6.00;100.00;101030.67;1628285;88;21120;-86
2021/04/24 03:02:25;;;;;;;11.83;4.25;;;;;;;6.02;100.00;101031.25;1628344;88;20954;-87
2021/04/24 03:04:51;;;;;;;11.25;3.92;;;;;;;6.05;100.00;101028.66;1628361;88;21338;-87
2021/04/24 03:07:17;;;;;;;11.45;4.33;;;;;;;6.08;100.00;101031.72;1628551;88;22031;-87
2021/04/24 03:09:44;;;;;;;13.40;4.08;;;;;;;6.04;100.00;101039.89;1628196;88;21010;-87
2021/04/24 03:12:10;;;;;;;11.63;4.75;;;;;;;6.19;100.00;101048.11;1623774;88;21144;-87
2021/04/24 03:14:36;;;;;;;13.62;5.00;;;;;;;6.16;100.00;101050.70;1640568;85;20946;-87
2021/04/24 03:17:04;;;;;;;15.95;6.00;;;;;;;6.30;100.00;101051.41;1673926;85;21176;-87
2021/04/24 03:19:30;;;;;;;22.77;7.65;;;;;;;6.35;100.00;101051.55;1718778;83;21223;-87
2021/04/24 03:21:56;;;;;;;20.10;8.08;;;;;;;6.42;100.00;101050.16;1718840;83;21438;-87
2021/04/24 03:24:22;;;;;;;20.27;8.68;;;;;;;6.56;100.00;101048.47;1718828;83;21097;-87
2021/04/24 03:26:48;;;;;;;28.27;9.95;;;;;;;6.81;100.00;101040.36;1718780;83;21149;-87
2021/04/24 03:29:14;;;;;;;30.05;9.68;;;;;;;6.81;100.00;101050.26;1725657;83;21515;-87
2021/04/24 03:31:40;;;;;;;27.07;10.18;;;;;;;6.95;100.00;101049.06;1707978;84;21188;-87
2021/04/24 03:34:06;;;;;;;27.05;10.10;;;;;;;6.98;100.00;101050.48;1714111;83;21164;-87
2021/04/24 03:36:32;;;;;;;31.75;10.80;;;;;;;7.32;100.00;101041.48;1728611;83;21167;-87
2021/04/24 03:38:58;;;;;;;31.48;10.95;;;;;;;7.30;100.00;101054.32;1728638;83;20939;-87
2021/04/24 03:41:24;;;;;;;30.55;9.50;;;;;;;7.76;100.00;101058.19;1728650;82;21057;-88
2021/04/24 03:43:50;;;;;;;23.85;9.40;;;;;;;8.52;100.00;101058.70;1728655;82;21184;-88
2021/04/24 03:46:16;;;;;;;28.65;10.48;;;;;;;9.67;100.00;101044.05;1728569;82;20947;-89
2021/04/24 03:48:42;;;;;;;25.20;9.10;;;;;;;10.27;100.00;101048.84;1728368;83;21708;-87
2021/04/24 03:51:08;;;;;;;21.85;9.05;;;;;;;11.16;100.00;101048.39;1728564;83;21602;-88
2021/04/24 03:53:34;;;;;;;23.95;8.58;;;;;;;12.00;100.00;101042.47;1728700;82;20946;-88
2021/04/24 03:56:00;;;;;;;18.42;8.53;;;;;;;12.99;100.00;101046.31;1728623;82;21815;-88
2021/04/24 03:58:26;;;;;;;21.82;9.20;;;;;;;13.48;100.00;101044.59;1728726;83;20998;-89
2021/04/24 04:00:52;;;;;;;19.37;8.55;;;;;;;13.83;100.00;101043.83;1728669;83;21076;-89
2021/04/24 04:03:17;;;;;;;21.30;8.65;;;;;;;14.42;100.00;101049.20;1728814;82;21121;-89
2021/04/24 04:05:45;;;;;;;19.98;8.13;;;;;;;14.85;100.00;101046.12;1729005;82;20939;-88
2021/04/24 04:08:14;;;;;;;25.15;8.45;;;;;;;15.73;100.00;101046.74;1728836;82;21654;-89
2021/04/24 04:10:43;;;;;;;20.80;8.35;;;;;;;15.95;100.00;101055.02;1728687;82;21175;-89
2021/04/24 04:13:11;;;;;;;18.07;7.75;;;;;;;15.76;89.65;101054.33;1728919;82;21192;-89
2021/04/24 04:15:38;;;;;;;17.52;6.70;;;;;;;16.22;74.99;101049.88;1728654;83;21101;-90
2021/04/24 04:18:08;;;;;;;15.25;7.10;;;;;;;16.91;85.93;101046.46;1728822;83;21189;-90
2021/04/24 04:20:39;;;;;;;12.18;6.03;;;;;;;17.00;69.45;101052.88;1708559;83;22003;-89
2021/04/24 04:23:05;;;;;;;14.47;6.42;;;;;;;18.16;79.29;101058.81;1728771;82;21187;-89
2021/04/24 04:25:31;;;;;;;11.80;6.67;;;;;;;17.70;70.63;101058.96;1728869;82;21068;-89
2021/04/24 04:27:57;;;;;;;13.95;6.83;;;;;;;17.84;62.03;101071.33;1737358;81;21140;-90
2021/04/24 04:30:24;;;;;;;12.98;5.85;;;;;;;17.43;58.77;101062.92;1734968;81;21022;-88
2021/04/24 04:32:50;;;;;;;16.32;6.35;;;;;;;18.15;63.85;101069.48;1760800;81;21330;-90
2021/04/24 04:35:17;;;;;;;11.80;5.67;;;;;;;18.25;59.39;101068.48;1760782;81;21211;-89
2021/04/24 04:37:43;;;;;;;15.13;5.47;;;;;;;19.26;55.86;101071.72;1760872;81;21136;-87
2021/04/24 04:40:13;;;;;;;11.53;6.12;;;;;;;18.55;52.58;101072.58;1760773;81;21584;-88
2021/04/24 04:42:40;;;;;;;11.85;5.55;;;;;;;17.15;55.13;101079.11;1760850;81;21144;-89
2021/04/24 04:45:08;;;;;;;15.95;5.62;;;;;;;17.86;56.11;101080.59;1760787;81;21140;-88
2021/04/24 04:47:34;;;;;;;10.45;4.85;;;;;;;18.13;54.64;101093.51;1760783;81;21136;-90
2021/04/24 04:50:01;;;;;;;13.55;5.12;;;;;;;18.89;55.38;101087.25;1760948;81;21109;-92
2021/04/24 04:52:27;;;;;;;13.43;4.95;;;;;;;19.55;54.01;101095.15;1760848;81;21565;-89
2021/04/24 04:54:52;;;;;;;11.78;4.97;;;;;;;19.98;49.28;101085.16;1760717;81;20989;-89
2021/04/24 04:57:18;;;;;;;12.73;5.83;;;;;;;19.74;48.12;101098.58;1760516;81;21497;-90
2021/04/24 04:59:44;;;;;;;12.85;5.60;;;;;;;19.70;44.75;101092.09;1734653;81;21011;-89
2021/04/24 05:02:10;;;;;;;12.37;5.53;;;;;;;20.39;43.08;101086.30;1761006;81;20958;-90
2021/04/24 05:04:36;;;;;;;11.22;5.00;;;;;;;19.81;44.88;101090.73;1760914;81;21603;-90
2021/04/24 05:07:03;;;;;;;12.82;4.67;;;;;;;21.13;47.63;101081.53;1760886;81;21180;-91
2021/04/24 05:09:31;;;;;;;12.55;5.45;;;;;;;21.36;44.69;101086.37;1760910;81;21215;-91
2021/04/24 05:11:57;;;;;;;9.78;4.83;;;;;;;20.62;43.40;101086.53;1760672;81;21175;-90
2021/04/24 05:14:23;;;;;;;10.53;4.97;;;;;;;20.29;41.67;101096.12;1760883;81;21007;-90
2021/04/24 05:16:49;;;;;;;11.33;4.90;;;;;;;20.91;39.61;101093.39;1756391;81;20958;-90
2021/04/24 05:19:15;;;;;;;10.00;4.33;;;;;;;20.36;44.18;101085.00;1760855;81;21152;-92
2021/04/24 05:21:41;;;;;;;8.53;4.10;;;;;;;21.73;40.89;101089.03;1760827;81;21180;-90
2021/04/24 05:24:09;;;;;;;8.58;4.20;;;;;;;21.73;39.31;101097.27;1760784;81;20974;-91
2021/04/24 05:26:34;;;;;;;9.58;4.55;;;;;;;21.72;37.57;101100.34;1760683;81;21219;-91
2021/04/24 05:29:00;;;;;;;8.08;4.42;;;;;;;23.08;40.02;101104.23;1760682;81;21572;-92
2021/04/24 05:31:27;;;;;;;10.03;3.92;;;;;;;23.06;38.85;101105.69;1761033;81;20926;-90
2021/04/24 05:33:54;;;;;;;11.25;4.25;;;;;;;23.47;34.15;101116.52;1760571;81;21252;-90
2021/04/24 05:36:21;;;;;;;10.23;4.12;;;;;;;23.65;36.24;101114.45;1760475;81;21076;-91
2021/04/24 05:38:50;;;;;;;7.80;3.72;;;;;;;24.68;35.22;101118.20;1760691;81;21161;-90
2021/04/24 05:41:21;;;;;;;8.00;3.65;;;;;;;23.75;35.62;101113.52;1760842;81;21418;-90
2021/04/24 05:43:44;;;;;;;9.48;3.30;;;;;;;24.90;33.17;101108.67;1756618;81;21179;-89
2021/04/24 05:46:10;;;;;;;12.78;3.95;;;;;;;24.67;33.33;101113.02;1760707;81;22006;-89
2021/04/24 05:48:36;;;;;;;11.68;3.40;;;;;;;25.71;31.28;101110.20;1760825;81;21187;-89
2021/04/24 05:51:01;;;;;;;7.50;3.58;;;;;;;24.15;32.25;101134.20;1760827;81;20967;-90
2021/04/24 05:53:27;;;;;;;8.95;3.98;;;;;;;23.55;31.04;101120.59;1760822;81;20995;-89
2021/04/24 05:55:53;;;;;;;9.60;3.50;;;;;;;23.48;32.22;101118.95;1760768;81;21068;-90
2021/04/24 05:58:19;;;;;;;6.17;3.37;;;;;;;23.10;33.13;101121.78;1760832;81;21176;-89
2021/04/24 06:00:45;;;;;;;6.78;3.75;;;;;;;24.64;30.79;101124.73;1760691;81;20958;-89
2021/04/24 06:03:11;;;;;;;8.40;3.55;;;;;;;24.07;32.38;101128.23;1760870;81;20957;-90
2021/04/24 06:05:37;;;;;;;5.33;3.10;;;;;;;25.54;30.77;101124.28;1760767;81;20922;-90
2021/04/24 06:08:04;;;;;;;9.55;3.33;;;;;;;26.15;30.94;101134.32;1760737;81;21155;-89
2021/04/24 06:10:30;;;;;;;7.00;3.30;;;;;;;26.37;29.04;101140.66;1760669;81;21201;-89
2021/04/24 06:12:55;;;;;;;7.85;3.22;;;;;;;25.09;30.80;101136.24;1760644;81;21022;-90
2021/04/24 06:15:23;;;;;;;6.72;4.08;;;;;;;26.85;27.23;101142.11;1760780;81;21009;-89
2021/04/24 06:17:50;;;;;;;4.55;2.95;;;;;;;25.83;28.78;101148.84;1760792;81;21639;-89
2021/04/24 06:20:17;;;;;;;5.65;3.00;;;;;;;26.61;29.87;101141.70;1760787;81;21132;-91
2021/04/24 06:22:43;;;;;;;6.20;3.20;;;;;;;26.77;29.56;101148.62;1734552;81;21163;-90
2021/04/24 06:25:14;;;;;;;9.00;3.05;;;;;;;26.71;29.65;101153.05;1760745;81;21131;-91
2021/04/24 06:27:40;;;;;;;4.55;2.62;;;;;;;26.92;27.67;101147.25;1760663;81;21601;-89
2021/04/24 06:30:09;;;;;;;4.85;2.60;;;;;;;27.14;27.64;101156.86;1760793;81;21056;-89
2021/04/24 06:32:36;;;;;;;6.72;2.90;;;;;;;26.99;25.69;101158.27;1760729;81;21116;-90
2021/04/24 06:35:04;;;;;;;4.37;2.40;;;;;;;25.54;27.61;101158.20;1760637;81;21914;-89
2021/04/24 06:37:30;;;;;;;4.20;2.15;;;;;;;24.81;27.31;101171.40;1760753;81;21176;-90
2021/04/24 06:39:57;;;;;;;9.33;2.60;;;;;;;26.01;27.86;101167.31;1760769;81;21596;-89
2021/04/24 06:42:23;;;;;;;6.75;2.52;;;;;;;24.83;25.67;101167.73;1760661;81;21460;-90
2021/04/24 06:44:49;;;;;;;4.42;2.30;;;;;;;25.15;26.91;101168.02;1760601;81;21124;-89
2021/04/24 06:47:16;;;;;;;3.80;1.87;;;;;;;27.37;25.46;101165.92;1760780;81;22052;-89
2021/04/24 06:49:42;;;;;;;4.33;2.10;;;;;;;26.94;25.58;101168.45;1760493;81;21196;-90
2021/04/24 06:52:08;;;;;;;3.33;1.77;;;;;;;26.23;24.87;101167.33;1760894;81;21136;-91
2021/04/24 06:54:35;;;;;;;2.05;1.82;;;;;;;25.89;24.58;101174.27;1760625;81;21549;-88
2021/04/24 06:57:02;;;;;;;4.37;1.92;;;;;;;25.54;25.54;101167.87;1760858;81;21673;-88
2021/04/24 06:59:28;;;;;;;6.35;2.00;;;;;;;25.90;25.45;101169.54;1760628;81;21707;-92
2021/04/24 07:01:54;;;;;;;2.40;2.05;;;;;;;25.64;24.43;101165.19;1760753;81;20934;-88
2021/04/24 07:04:20;;;;;;;6.37;2.17;;;;;;;27.09;24.24;101164.07;1760593;81;20985;-88
2021/04/24 07:06:46;;;;;;;2.47;1.80;;;;;;;26.16;25.11;101168.52;1760691;81;21577;-90
2021/04/24 07:09:12;;;;;;;2.05;1.70;;;;;;;25.79;26.42;101171.95;1760856;81;21176;-88
2021/04/24 07:11:38;;;;;;;3.72;2.02;;;;;;;26.93;22.97;101178.48;1760814;81;21188;-88
2021/04/24 07:14:04;;;;;;;3.15;1.80;;;;;;;26.32;24.12;101178.81;1759904;81;21188;-89
2021/04/24 07:16:30;;;;;;;4.58;1.62;;;;;;;27.55;23.79;101176.81;1734296;81;21203;-89
2021/04/24 07:18:56;;;;;;;3.45;1.80;;;;;;;26.28;23.00;101176.75;1760590;81;21175;-88
2021/04/24 07:21:22;;;;;;;2.45;1.70;;;;;;;26.75;24.71;101177.23;1760565;81;21013;-88
2021/04/24 07:23:49;;;;;;;2.10;1.70;;;;;;;26.46;24.16;101187.50;1734339;81;21269;-90
2021/04/24 07:26:16;;;;;;;5.03;2.00;;;;;;;26.85;23.22;101179.45;1760670;81;21548;-89
2021/04/24 07:28:42;;;;;;;5.80;1.70;;;;;;;27.72;23.95;101173.42;1756336;81;21784;-89
2021/04/24 07:31:09;;;;;;;1.90;1.42;;;;;;;26.91;23.79;101182.17;1728778;82;20930;-89
2021/04/24 07:33:36;;;;;;;2.35;1.57;;;;;;;28.26;21.97;101186.44;1728647;83;21140;-88
2021/04/24 07:36:02;;;;;;;2.60;1.40;;;;;;;27.02;21.62;101184.62;1728741;82;21152;-90
2021/04/24 07:38:28;;;;;;;5.05;1.67;;;;;;;27.68;22.31;101180.28;1728633;82;21141;-90
2021/04/24 07:40:54;;;;;;;5.87;1.87;;;;;;;29.24;20.12;101183.67;1728643;83;21151;-89
2021/04/24 07:43:20;;;;;;;2.85;1.50;;;;;;;27.11;22.82;101189.98;1728711;83;21133;-87
2021/04/24 07:45:46;;;;;;;4.85;1.92;;;;;;;25.26;23.45;101193.97;1728688;82;21622;-90
2021/04/24 07:48:12;;;;;;;3.12;1.42;;;;;;;26.41;23.63;101184.98;1728571;82;21227;-89
2021/04/24 07:50:38;;;;;;;4.72;1.92;;;;;;;26.10;23.10;101188.47;1728630;83;20950;-88
2021/04/24 07:53:05;;;;;;;2.45;1.67;;;;;;;25.78;23.70;101189.09;1728790;83;21518;-89
2021/04/24 07:55:31;;;;;;;3.22;1.60;;;;;;;27.56;22.91;101182.59;1728557;82;21592;-88
2021/04/24 07:57:58;;;;;;;2.20;1.70;;;;;;;27.96;22.46;101181.48;1728759;82;21133;-91
2021/04/24 08:00:24;;;;;;;6.17;1.90;;;;;;;27.31;22.41;101193.66;1728708;83;21719;-92
2021/04/24 08:02:51;;;;;;;4.83;1.80;;;;;;;26.48;21.42;101190.14;1728857;82;21176;-93
2021/04/24 08:05:17;;;;;;;2.92;1.60;;;;;;;27.75;21.21;101187.94;1708020;83;21158;-93
2021/04/24 08:07:44;;;;;;;4.35;1.67;;;;;;;28.26;22.12;101178.91;1728799;83;21164;-93
2021/04/24 08:10:11;;;;;;;2.17;1.55;;;;;;;27.79;21.83;101174.98;1729014;82;21129;-93
2021/04/24 08:12:38;;;;;;;3.15;1.72;;;;;;;28.78;20.74;101183.67;1728976;82;21218;-89
2021/04/24 08:15:07;;;;;;;3.35;1.82;;;;;;;27.60;21.12;101187.62;1729746;81;21627;-90
2021/04/24 08:17:33;;;;;;;4.67;1.67;;;;;;;26.20;21.49;101188.75;1681764;83;21642;-93
2021/04/24 08:20:00;;;;;;;3.30;1.80;;;;;;;28.53;21.44;101187.37;1678716;84;20967;-91
2021/04/24 08:22:26;;;;;;;7.83;1.82;;;;;;;28.59;20.78;101181.77;1677364;85;21657;-93
2021/04/24 08:24:53;;;;;;;1.85;1.70;;;;;;;28.97;20.08;101191.11;1677656;85;21212;-92
2021/04/24 08:27:20;;;;;;;3.08;1.62;;;;;;;29.30;19.80;101185.55;1677572;85;21188;-95
2021/04/24 08:29:46;;;;;;;3.52;2.15;;;;;;;29.47;19.08;101175.85;1677450;85;21192;-94
2021/04/24 08:32:13;;;;;;;5.28;2.10;;;;;;;28.46;20.07;101191.41;1677710;85;21243;-91
2021/04/24 08:34:39;;;;;;;3.05;1.85;;;;;;;27.89;20.44;101188.86;1632508;85;21137;-91
2021/04/24 08:37:05;;;;;;;2.67;1.60;;;;;;;27.24;22.49;101190.16;1677634;85;22484;-90
2021/04/24 08:39:31;;;;;;;3.22;1.60;;;;;;;27.88;21.28;101179.72;1677469;85;20998;-92
2021/04/24 08:41:59;;;;;;;3.35;1.62;;;;;;;26.53;22.06;101175.84;1677442;85;21176;-89
2021/04/24 08:44:25;;;;;;;4.70;1.85;;;;;;;25.04;22.87;101188.90;1677826;85;21133;-91
2021/04/24 08:46:52;;;;;;;7.37;2.12;;;;;;;23.39;24.95;101195.81;1677535;85;21180;-94
2021/04/24 08:49:23;;;;;;;6.00;2.42;;;;;;;23.05;25.57;101187.38;1677661;85;21586;-91
2021/04/24 08:51:51;;;;;;;6.60;2.50;;;;;;;22.52;25.79;101188.63;1677473;85;21609;-92
2021/04/24 08:54:18;;;;;;;4.37;2.27;;;;;;;21.96;26.36;101193.16;1677552;85;21482;-93
2021/04/24 08:56:45;;;;;;;4.08;2.02;;;;;;;22.70;25.87;101186.65;1677603;85;21259;-92
2021/04/24 08:59:12;;;;;;;7.22;2.40;;;;;;;24.26;25.78;101176.14;1677558;85;21140;-91
2021/04/24 09:01:39;;;;;;;3.27;2.08;;;;;;;25.33;24.04;101184.56;1677710;85;21205;-91
2021/04/24 09:04:06;;;;;;;4.92;2.20;;;;;;;26.13;23.94;101176.13;1677556;85;21258;-91
2021/04/24 09:06:34;;;;;;;2.90;1.77;;;;;;;25.49;22.60;101182.48;1677672;85;21478;-92
2021/04/24 09:09:11;;;;;;;3.80;2.40;;;;;;;24.01;24.09;101193.14;1679164;85;21217;-92
2021/04/24 09:11:47;;;;;;;5.95;2.22;;;;;;;23.35;25.86;101198.39;1677340;85;21225;-92
2021/04/24 09:14:16;;;;;;;4.25;2.22;;;;;;;24.47;22.81;101193.23;1700364;83;21372;-90
2021/04/24 09:16:46;;;;;;;4.62;2.40;;;;;;;25.23;23.08;101187.77;1728742;83;21199;-90
2021/04/24 09:19:37;;;;;;;4.42;2.12;;;;;;;25.98;21.31;101186.55;1697609;83;21221;-93
2021/04/24 09:22:23;;;;;;;5.60;2.20;;;;;;;26.70;22.71;101170.78;1728700;83;21566;-88
2021/04/24 09:24:54;;;;;;;3.60;2.12;;;;;;;26.11;22.24;101167.97;1729031;83;21146;-94
2021/04/24 09:27:43;;;;;;;5.33;2.47;;;;;;;23.78;24.03;101182.23;1728889;83;21868;-92
2021/04/24 09:30:30;;;;;;;3.80;2.10;;;;;;;22.20;25.14;101199.00;1637284;87;21255;-93
2021/04/24 09:33:12;;;;;;;5.35;2.22;;;;;;;20.92;27.16;101201.08;1639786;87;21620;-91
2021/04/24 09:35:46;;;;;;;4.10;2.15;;;;;;;21.07;27.55;101195.98;1639049;87;21279;-92
2021/04/24 09:38:28;;;;;;;8.00;2.50;;;;;;;22.40;25.64;101189.30;1565023;91;21244;-93
2021/04/24 09:41:12;;;;;;;5.92;2.27;;;;;;;22.92;25.93;101173.27;1519832;93;21322;-92
2021/04/24 09:44:03;;;;;;;4.00;2.30;;;;;;;22.38;26.04;101176.48;1520179;93;21373;-92
2021/04/24 09:46:51;;;;;;;4.33;2.05;;;;;;;21.39;26.67;101176.78;1520295;93;21663;-91
2021/04/24 09:49:33;;;;;;;7.42;2.75;;;;;;;20.09;28.79;101186.37;1520247;93;21210;-92
2021/04/24 09:52:05;;;;;;;7.30;2.37;;;;;;;18.94;30.02;101196.94;1520245;93;21241;-90
2021/04/24 09:54:45;;;;;;;4.92;2.40;;;;;;;18.58;30.09;101192.89;1543040;92;21256;-91
2021/04/24 09:57:21;;;;;;;6.67;2.37;;;;;;;18.07;32.03;101197.80;1545766;91;21209;-91
2021/04/24 10:00:00;;;;;;;6.58;2.10;;;;;;;16.47;35.03;101201.19;1545870;92;21202;-93
2021/04/24 10:02:44;;;;;;;6.28;2.27;;;;;;;16.84;33.79;101192.98;1545933;92;21487;-91
2021/04/24 10:05:17;;;;;;;7.22;2.42;;;;;;;15.79;35.57;101197.80;1546026;92;21805;-90
2021/04/24 10:07:49;;;;;;;6.22;2.70;;;;;;;16.18;34.45;101194.84;1602108;88;22027;-91
2021/04/24 10:10:32;;;;;;;4.17;2.00;;;;;;;15.40;37.32;101205.83;1625162;88;21104;-90
2021/04/24 10:13:05;;;;;;;4.85;1.85;;;;;;;16.29;35.72;101191.77;1623936;88;21810;-90
2021/04/24 10:15:49;;;;;;;5.75;1.98;;;;;;;17.35;34.43;101176.64;1584284;89;21197;-89
2021/04/24 10:18:17;;;;;;;7.33;2.00;;;;;;;18.02;33.67;101196.50;1626736;86;21269;-89
2021/04/24 10:20:46;;;;;;;9.10;2.27;;;;;;;17.62;32.99;101180.95;1622118;88;21342;-92
2021/04/24 10:23:15;;;;;;;7.03;2.30;;;;;;;17.63;32.41;101181.75;1622230;88;21191;-92
2021/04/24 10:25:45;;;;;;;3.52;1.85;;;;;;;17.22;32.84;101179.52;1622213;88;21530;-91
2021/04/24 10:28:11;;;;;;;4.08;1.70;;;;;;;17.03;32.65;101185.73;1622277;88;21663;-91
2021/04/24 10:30:39;;;;;;;2.47;1.75;;;;;;;16.43;32.99;101185.15;1628490;87;21227;-91
2021/04/24 10:33:06;;;;;;;6.72;2.08;;;;;;;16.48;33.48;101185.67;1623552;87;21210;-91
2021/04/24 10:35:32;;;;;;;6.55;2.10;;;;;;;15.78;34.05;101200.81;1600458;88;21208;-90
2021/04/24 10:38:01;;;;;;;4.47;1.85;;;;;;;15.66;34.46;101196.48;1577653;91;21644;-92
2021/04/24 10:40:33;;;;;;;8.63;2.22;;;;;;;15.44;35.07;101198.22;1634344;86;21084;-91
2021/04/24 10:43:00;;;;;;;5.83;2.33;;;;;;;15.67;34.35;101201.36;1656039;85;21242;-93
2021/04/24 10:45:33;;;;;;;3.22;1.70;;;;;;;14.92;36.29;101212.20;1637504;84;21233;-93
2021/04/24 10:47:59;;;;;;;7.60;2.13;;;;;;;14.78;36.83;101205.70;1613850;87;21178;-90
2021/04/24 10:51:05;;;;;;;5.30;1.98;;;;;;;14.60;36.92;101216.02;1596667;88;21226;-92
2021/04/24 10:53:34;;;;;;;11.35;2.12;;;;;;;14.48;37.73;101211.38;1559711;90;21194;-94
2021/04/24 10:56:02;;;;;;;4.55;1.95;;;;;;;14.47;37.93;101209.20;1580635;90;21477;-92
2021/04/24 10:58:33;;;;;;;5.25;1.80;;;;;;;14.06;38.25;101219.98;1601774;89;21187;-91
2021/04/24 11:01:06;;;;;;;5.33;1.80;;;;;;;14.11;38.79;101223.78;1602767;88;21679;-90
2021/04/24 11:06:20;;;;;;;6.70;1.80;;;;;;;13.29;41.71;101228.33;1560841;91;21260;-92
2021/04/24 11:08:51;;;;;;;4.08;1.80;;;;;;;14.45;38.27;101197.00;1537133;93;21255;-93
2021/04/24 11:11:21;;;;;;;3.45;1.60;;;;;;;14.45;38.27;101197.00;1537482;93;21663;-92
2021/04/24 11:13:53;;;;;;;3.92;1.87;;;;;;;14.67;38.09;101219.25;1524263;93;21157;-92
2021/04/24 11:16:21;;;;;;;4.30;1.62;;;;;;;15.35;36.37;101216.18;1544139;93;21320;-89
2021/04/24 11:18:58;;;;;;;7.90;2.08;;;;;;;15.41;36.56;101198.78;1552558;92;21282;-90
2021/04/24 11:21:29;;;;;;;8.63;2.25;;;;;;;14.82;36.41;101191.84;1484168;96;21218;-91
2021/04/24 11:24:00;;;;;;;4.45;1.77;;;;;;;14.88;37.15;101230.09;1470904;97;21443;-88
2021/04/24 11:26:38;;;;;;;8.33;2.10;;;;;;;15.05;37.27;101231.17;1470866;97;21182;-90
2021/04/24 11:29:09;;;;;;;5.70;1.60;;;;;;;14.90;38.16;101236.88;1470979;97;21293;-90
2021/04/24 11:31:49;;;;;;;12.90;2.20;;;;;;;14.99;38.07;101250.72;1462058;97;21247;-91